createdAt,value
2022-10-07T00:02:49.323Z,20.10
2022-10-07T00:06:05.669Z,21.77
2022-10-07T00:09:08.954Z,23.33
2022-10-07T00:12:12.015Z,23.08
2022-10-07T00:15:15.619Z,25.17
2022-10-07T00:18:18.647Z,21.53
2022-10-07T00:21:21.395Z,21.15
2022-10-07T00:24:24.371Z,22.48
2022-10-07T00:27:27.129Z,18.85
2022-10-07T00:30:30.261Z,23.23
2022-10-07T00:33:36.543Z,18.90
2022-10-07T00:36:40.646Z,25.42
2022-10-07T00:39:43.387Z,18.65
2022-10-07T00:42:46.478Z,20.83
2022-10-07T00:45:53.944Z,19.70
2022-10-07T00:49:01.985Z,20.47
2022-10-07T00:52:04.671Z,20.73
2022-10-07T00:55:12.663Z,17.40
2022-10-07T00:58:15.476Z,24.58
2022-10-07T01:01:20.637Z,19.77
2022-10-07T01:04:23.325Z,23.00
2022-10-07T01:07:28.334Z,21.50
2022-10-07T01:11:14.198Z,20.10
2022-10-07T01:14:52.585Z,20.88
2022-10-07T01:17:59.372Z,19.37
2022-10-07T01:21:06.451Z,19.23
2022-10-07T01:24:40.309Z,18.80
2022-10-07T01:27:51.541Z,17.80
2022-10-07T01:30:59.113Z,18.87
2022-10-07T01:34:05.197Z,20.00
2022-10-07T01:37:12.215Z,19.37
2022-10-07T01:40:20.659Z,17.25
2022-10-07T01:43:23.764Z,16.23
2022-10-07T01:46:28.452Z,17.27
2022-10-07T01:49:31.571Z,14.67
2022-10-07T01:52:50.915Z,16.67
2022-10-07T01:56:23.104Z,13.40
2022-10-07T01:59:48.385Z,14.20
2022-10-07T02:03:12.288Z,19.85
2022-10-07T02:06:16.187Z,17.73
2022-10-07T02:09:29.686Z,15.30
2022-10-07T02:12:38.065Z,18.83
2022-10-07T02:15:48.006Z,21.33
2022-10-07T02:18:53.866Z,15.90
2022-10-07T02:21:59.700Z,15.40
2022-10-07T02:25:03.593Z,15.30
2022-10-07T02:28:09.832Z,16.02
2022-10-07T02:31:17.957Z,15.50
2022-10-07T02:34:23.905Z,17.05
2022-10-07T02:37:30.749Z,17.50
2022-10-07T02:40:40.256Z,16.17
2022-10-07T02:43:52.133Z,17.73
2022-10-07T02:47:10.910Z,17.67
2022-10-07T02:50:17.095Z,16.87
2022-10-07T02:53:21.841Z,17.33
2022-10-07T02:56:27.587Z,15.27
2022-10-07T02:59:34.995Z,14.90
2022-10-07T03:02:49.357Z,17.85
2022-10-07T03:05:53.044Z,16.90
2022-10-07T03:08:58.216Z,16.50
2022-10-07T03:12:01.302Z,18.93
2022-10-07T03:15:04.298Z,16.12
2022-10-07T03:18:26.633Z,17.90
2022-10-07T03:21:33.068Z,18.65
2022-10-07T03:24:36.271Z,21.60
2022-10-07T03:27:42.655Z,20.37
2022-10-07T03:30:46.344Z,17.58
2022-10-07T03:33:50.907Z,22.13
2022-10-07T03:36:55.305Z,19.33
2022-10-07T03:39:58.165Z,21.93
2022-10-07T03:43:01.335Z,19.10
2022-10-07T03:46:04.098Z,20.35
2022-10-07T03:49:07.605Z,21.37
2022-10-07T03:52:11.140Z,24.83
2022-10-07T03:55:14.371Z,20.37
2022-10-07T03:58:17.559Z,25.10
2022-10-07T04:01:22.187Z,19.60
2022-10-07T04:04:25.224Z,26.58
2022-10-07T04:07:28.101Z,24.02
2022-10-07T04:10:31.418Z,27.30
2022-10-07T04:13:34.307Z,26.47
2022-10-07T04:16:38.883Z,27.95
2022-10-07T04:19:42.367Z,24.60
2022-10-07T04:22:45.405Z,24.02
2022-10-07T04:25:48.110Z,23.97
2022-10-07T04:28:51.606Z,26.23
2022-10-07T04:31:59.244Z,21.95
2022-10-07T04:35:03.664Z,25.58
2022-10-07T04:38:09.943Z,25.20
2022-10-07T04:41:14.128Z,26.33
2022-10-07T04:44:17.416Z,31.53
2022-10-07T04:47:21.463Z,27.75
2022-10-07T04:50:24.171Z,29.95
2022-10-07T04:53:27.235Z,29.40
2022-10-07T04:56:31.588Z,31.80
2022-10-07T04:59:40.523Z,27.13
2022-10-07T05:02:50.518Z,34.78
2022-10-07T05:06:01.123Z,31.02
2022-10-07T05:09:06.148Z,36.63
2022-10-07T05:12:09.886Z,32.47
2022-10-07T05:15:14.289Z,35.13
2022-10-07T05:18:18.883Z,38.17
2022-10-07T05:21:22.240Z,33.15
2022-10-07T05:24:25.258Z,32.50
2022-10-07T05:27:28.495Z,38.83
2022-10-07T05:30:32.864Z,37.47
2022-10-07T05:33:36.455Z,36.05
2022-10-07T05:36:39.558Z,42.90
2022-10-07T05:39:42.655Z,37.45
2022-10-07T05:42:46.135Z,32.23
2022-10-07T05:45:57.057Z,40.10
2022-10-07T05:49:00.388Z,37.33
2022-10-07T05:52:05.918Z,33.08
2022-10-07T05:55:09.577Z,36.33
2022-10-07T05:58:13.817Z,35.93
2022-10-07T06:01:19.845Z,34.97
2022-10-07T06:04:23.146Z,34.78
2022-10-07T06:07:29.288Z,30.35
2022-10-07T06:10:53.439Z,43.47
2022-10-07T06:13:56.925Z,35.97
2022-10-07T06:17:00.995Z,42.80
2022-10-07T06:20:03.952Z,36.38
2022-10-07T06:23:07.473Z,37.35
2022-10-07T06:26:12.068Z,31.12
2022-10-07T06:29:15.236Z,29.80
2022-10-07T06:32:18.207Z,31.33
2022-10-07T06:35:21.200Z,29.73
2022-10-07T06:38:24.725Z,42.58
2022-10-07T06:41:28.290Z,44.17
2022-10-07T06:44:35.156Z,34.97
2022-10-07T06:47:39.830Z,29.67
2022-10-07T06:50:53.913Z,28.65
2022-10-07T06:53:58.199Z,25.50
2022-10-07T06:57:01.724Z,24.92
2022-10-07T07:00:05.680Z,22.30
2022-10-07T07:03:09.063Z,23.47
2022-10-07T07:06:12.367Z,22.10
2022-10-07T07:09:16.003Z,21.20
2022-10-07T07:12:19.925Z,20.88
2022-10-07T07:15:23.650Z,20.90
2022-10-07T07:18:27.137Z,19.10
2022-10-07T07:21:30.406Z,16.25
2022-10-07T07:24:33.436Z,18.58
2022-10-07T07:27:36.674Z,17.37
2022-10-07T07:30:40.962Z,12.53
2022-10-07T07:33:44.354Z,14.33
2022-10-07T07:36:51.394Z,14.48
2022-10-07T07:39:54.378Z,15.27
2022-10-07T07:42:57.252Z,10.30
2022-10-07T07:46:00.619Z,14.30
2022-10-07T07:49:04.360Z,16.10
2022-10-07T07:52:11.068Z,11.55
2022-10-07T07:55:15.308Z,13.48
2022-10-07T07:58:17.990Z,14.87
2022-10-07T08:01:21.008Z,12.07
2022-10-07T08:04:25.180Z,14.03
2022-10-07T08:07:28.739Z,16.48
2022-10-07T08:10:31.768Z,10.43
2022-10-07T08:13:36.176Z,13.30
2022-10-07T08:16:39.383Z,11.77
2022-10-07T08:19:41.992Z,13.80
2022-10-07T08:22:46.159Z,13.57
2022-10-07T08:25:54.141Z,14.90
2022-10-07T08:28:58.126Z,15.35
2022-10-07T08:32:01.189Z,7.67
2022-10-07T08:35:04.431Z,13.27
2022-10-07T08:38:07.016Z,13.15
2022-10-07T08:41:34.091Z,12.70
2022-10-07T08:44:43.215Z,13.88
2022-10-07T08:47:49.116Z,11.17
2022-10-07T08:51:07.356Z,10.50
2022-10-07T08:54:15.004Z,7.95
2022-10-07T08:57:29.699Z,15.63
2022-10-07T09:00:59.515Z,10.70
2022-10-07T09:04:26.283Z,13.07
2022-10-07T09:07:32.590Z,17.63
2022-10-07T09:10:40.740Z,9.85
2022-10-07T09:13:50.782Z,8.40
2022-10-07T09:16:56.298Z,15.13
2022-10-07T09:20:04.204Z,8.43
2022-10-07T09:23:12.028Z,7.10
2022-10-07T09:26:16.979Z,8.50
2022-10-07T09:29:23.105Z,8.32
2022-10-07T09:32:27.314Z,7.90
2022-10-07T09:35:32.103Z,9.67
2022-10-07T09:38:43.487Z,9.47
2022-10-07T09:41:48.463Z,10.00
2022-10-07T09:44:53.811Z,8.88
2022-10-07T09:47:59.518Z,9.45
2022-10-07T09:51:19.496Z,10.37
2022-10-07T09:54:26.219Z,8.40
2022-10-07T09:57:32.891Z,9.02
2022-10-07T10:00:44.034Z,6.25
2022-10-07T10:03:48.067Z,9.45
2022-10-07T10:06:52.125Z,11.37
2022-10-07T10:09:57.904Z,9.07
2022-10-07T10:13:04.762Z,7.32
2022-10-07T10:16:28.943Z,9.45
2022-10-07T10:19:36.438Z,11.38
2022-10-07T10:22:40.460Z,8.80
2022-10-07T10:26:16.148Z,8.97
2022-10-07T10:29:54.368Z,7.87
2022-10-07T10:33:13.577Z,10.38
2022-10-07T10:36:23.062Z,9.02
2022-10-07T10:39:31.607Z,8.53
2022-10-07T10:42:50.665Z,10.60
2022-10-07T10:46:05.318Z,14.18
2022-10-07T10:49:11.307Z,10.05
2022-10-07T10:52:52.977Z,10.77
2022-10-07T10:56:02.816Z,8.47
2022-10-07T10:59:18.632Z,7.47
2022-10-07T11:02:50.840Z,10.23
2022-10-07T11:05:56.144Z,13.02
2022-10-07T11:09:01.693Z,6.62
2022-10-07T11:12:15.052Z,7.77
2022-10-07T11:15:47.455Z,8.90
2022-10-07T11:18:53.752Z,14.57
2022-10-07T11:22:00.959Z,8.07
2022-10-07T11:25:16.536Z,8.45
2022-10-07T11:28:34.959Z,6.83
2022-10-07T11:31:44.544Z,12.27
2022-10-07T11:34:54.834Z,6.68
2022-10-07T11:38:17.171Z,9.73
2022-10-07T11:41:30.134Z,8.27
2022-10-07T11:44:41.504Z,10.00
2022-10-07T11:47:50.903Z,10.10
2022-10-07T11:51:05.912Z,7.85
2022-10-07T11:54:16.876Z,9.50
2022-10-07T11:57:27.338Z,10.30
2022-10-07T12:00:40.537Z,17.20
2022-10-07T12:03:44.432Z,8.47
2022-10-07T12:07:24.708Z,9.45
2022-10-07T12:10:35.920Z,7.55
2022-10-07T12:13:45.138Z,8.85
2022-10-07T12:16:54.398Z,9.47
2022-10-07T12:20:37.304Z,6.63
2022-10-07T12:23:42.066Z,11.50
2022-10-07T12:26:46.900Z,7.15
2022-10-07T12:30:03.460Z,9.57
2022-10-07T12:33:26.125Z,8.77
2022-10-07T12:36:30.131Z,8.97
2022-10-07T12:39:37.410Z,7.80
2022-10-07T12:42:48.166Z,8.43
2022-10-07T12:45:52.255Z,9.05
2022-10-07T12:49:03.341Z,10.07
2022-10-07T12:52:13.143Z,9.50
2022-10-07T12:55:32.416Z,11.40
2022-10-07T12:58:59.530Z,7.37
2022-10-07T13:02:59.434Z,7.80
2022-10-07T13:06:39.375Z,10.30
2022-10-07T13:10:06.606Z,8.10
2022-10-07T13:13:15.007Z,7.15
2022-10-07T13:16:27.642Z,10.13
2022-10-07T13:19:34.220Z,12.30
2022-10-07T13:22:39.827Z,10.37
2022-10-07T13:25:51.501Z,9.53
2022-10-07T13:29:00.411Z,9.05
2022-10-07T13:32:07.788Z,8.27
2022-10-07T13:35:33.218Z,8.77
2022-10-07T13:38:37.820Z,9.13
2022-10-07T13:41:45.226Z,10.17
2022-10-07T13:44:48.123Z,9.70
2022-10-07T13:47:51.657Z,7.22
2022-10-07T13:50:57.569Z,8.43
2022-10-07T13:54:04.295Z,8.63
2022-10-07T13:57:12.317Z,9.13
2022-10-07T14:00:16.595Z,10.25
2022-10-07T14:03:19.485Z,8.55
2022-10-07T14:06:50.195Z,7.95
2022-10-07T14:09:59.221Z,12.40
2022-10-07T14:13:05.113Z,12.37
2022-10-07T14:16:20.847Z,13.35
2022-10-07T14:19:23.517Z,7.60
2022-10-07T14:22:50.385Z,24.00
2022-10-07T14:25:55.307Z,9.73
2022-10-07T14:28:58.266Z,10.97
2022-10-07T14:32:40.994Z,12.37
2022-10-07T14:35:44.723Z,9.15
2022-10-07T14:38:50.048Z,10.52
2022-10-07T14:41:54.184Z,10.03
2022-10-07T14:44:58.098Z,13.33
2022-10-07T14:48:00.967Z,13.30
2022-10-07T14:51:03.709Z,10.73
2022-10-07T14:54:07.941Z,9.00
2022-10-07T14:57:12.053Z,11.43
2022-10-07T15:00:20.405Z,150.60
2022-10-07T15:03:24.529Z,15.88
2022-10-07T15:06:28.572Z,12.63
2022-10-07T15:09:31.246Z,14.15
2022-10-07T15:12:34.443Z,16.80
2022-10-07T15:15:45.396Z,17.00
2022-10-07T15:18:52.539Z,20.70
2022-10-07T15:21:56.493Z,20.55
2022-10-07T15:24:59.455Z,15.93
2022-10-07T15:28:02.453Z,17.43
2022-10-07T15:31:08.334Z,19.90
2022-10-07T15:34:11.841Z,17.90
2022-10-07T15:37:15.190Z,15.57
2022-10-07T15:40:17.900Z,13.43
2022-10-07T15:43:21.199Z,12.97
2022-10-07T15:46:25.110Z,21.17
2022-10-07T15:49:29.100Z,25.30
2022-10-07T15:52:31.883Z,17.02
2022-10-07T15:55:34.823Z,14.18
2022-10-07T15:58:37.535Z,17.10
2022-10-07T16:01:40.472Z,18.20
2022-10-07T16:04:45.275Z,20.25
2022-10-07T16:07:47.903Z,15.23
2022-10-07T16:10:50.817Z,15.20
2022-10-07T16:13:54.974Z,11.23
2022-10-07T16:17:00.421Z,17.30
2022-10-07T16:20:10.431Z,19.15
2022-10-07T16:23:15.569Z,26.45
2022-10-07T16:26:21.473Z,28.60
2022-10-07T16:29:43.001Z,34.60
2022-10-07T16:32:46.345Z,42.43
2022-10-07T16:35:49.575Z,99.53
2022-10-07T16:38:53.909Z,72.32
2022-10-07T16:41:56.794Z,57.72
2022-10-07T16:44:59.395Z,82.70
2022-10-07T16:48:02.297Z,79.07
2022-10-07T16:51:08.532Z,36.78
2022-10-07T16:54:17.910Z,29.80
2022-10-07T16:57:21.732Z,21.85
2022-10-07T17:00:24.993Z,24.90
2022-10-07T17:03:27.969Z,24.57
2022-10-07T17:06:32.439Z,26.08
2022-10-07T17:09:35.067Z,23.40
2022-10-07T17:12:40.813Z,26.70
2022-10-07T17:15:43.460Z,28.47
2022-10-07T17:18:46.566Z,36.00
2022-10-07T17:21:51.285Z,32.45
2022-10-07T17:24:54.185Z,33.47
2022-10-07T17:27:56.806Z,32.88
2022-10-07T17:31:08.367Z,31.23
2022-10-07T17:34:12.721Z,28.33
2022-10-07T17:37:15.626Z,28.75
2022-10-07T17:40:18.283Z,26.45
2022-10-07T17:43:22.378Z,27.65
2022-10-07T17:46:30.826Z,25.30
2022-10-07T17:49:34.804Z,29.73
2022-10-07T17:52:37.419Z,28.33
2022-10-07T17:55:40.401Z,33.55
2022-10-07T17:58:48.301Z,26.83
2022-10-07T18:01:51.588Z,28.07
2022-10-07T18:04:55.239Z,30.60
2022-10-07T18:08:00.846Z,30.17
2022-10-07T18:11:04.896Z,73.70
2022-10-07T18:14:27.104Z,94.82
2022-10-07T18:17:30.528Z,85.97
2022-10-07T18:20:37.265Z,56.40
2022-10-07T18:23:44.276Z,45.28
2022-10-07T18:26:47.003Z,40.65
2022-10-07T18:29:50.278Z,39.15
2022-10-07T18:32:53.086Z,32.87
2022-10-07T18:36:00.951Z,32.13
2022-10-07T18:39:07.605Z,36.25
2022-10-07T18:42:10.539Z,45.10
2022-10-07T18:45:13.186Z,53.95
2022-10-07T18:48:16.532Z,61.73
2022-10-07T18:51:19.771Z,53.40
2022-10-07T18:54:23.719Z,49.22
2022-10-07T18:57:27.067Z,39.90
2022-10-07T19:00:30.195Z,32.65
2022-10-07T19:03:35.969Z,37.63
2022-10-07T19:06:46.659Z,31.03
2022-10-07T19:09:50.546Z,31.92
2022-10-07T19:13:16.092Z,29.87
2022-10-07T19:16:30.167Z,39.55
2022-10-07T19:19:34.375Z,40.70
2022-10-07T19:22:38.231Z,36.37
2022-10-07T19:25:48.851Z,37.35
2022-10-07T19:28:52.680Z,33.63
2022-10-07T19:31:58.309Z,32.03
2022-10-07T19:35:01.108Z,40.73
2022-10-07T19:38:06.205Z,32.70
2022-10-07T19:41:11.206Z,37.50
2022-10-07T19:44:14.470Z,33.58
2022-10-07T19:47:18.912Z,29.08
2022-10-07T19:50:23.490Z,33.87
2022-10-07T19:53:28.952Z,29.53
2022-10-07T19:56:36.139Z,27.45
2022-10-07T19:59:38.731Z,26.08
2022-10-07T20:02:42.395Z,29.42
2022-10-07T20:05:47.345Z,30.93
2022-10-07T20:08:51.085Z,31.87
2022-10-07T20:11:54.655Z,35.75
2022-10-07T20:14:57.972Z,37.85
2022-10-07T20:18:03.791Z,29.08
2022-10-07T20:21:11.942Z,25.20
2022-10-07T20:24:16.635Z,34.40
2022-10-07T20:27:20.183Z,31.30
2022-10-07T20:30:23.705Z,55.80
2022-10-07T20:33:27.458Z,37.78
2022-10-07T20:36:38.220Z,24.90
2022-10-07T20:39:59.287Z,22.23
2022-10-07T20:43:03.600Z,18.42
2022-10-07T20:46:06.382Z,18.70
2022-10-07T20:49:21.382Z,21.37
2022-10-07T20:52:26.957Z,16.63
2022-10-07T20:55:36.079Z,21.17
2022-10-07T20:58:38.977Z,15.45
2022-10-07T21:01:42.770Z,19.90
2022-10-07T21:04:48.218Z,15.15
2022-10-07T21:07:54.656Z,17.03
2022-10-07T21:11:05.385Z,16.13
2022-10-07T21:14:08.254Z,15.68
2022-10-07T21:17:11.828Z,15.63
2022-10-07T21:20:14.849Z,17.60
2022-10-07T21:23:17.398Z,14.03
2022-10-07T21:26:21.275Z,15.57
2022-10-07T21:29:23.810Z,14.43
2022-10-07T21:32:28.353Z,15.80
2022-10-07T21:35:32.898Z,16.25
2022-10-07T21:38:35.766Z,15.97
2022-10-07T21:41:39.021Z,16.20
2022-10-07T21:44:43.287Z,16.37
2022-10-07T21:47:45.851Z,18.12
2022-10-07T21:50:56.656Z,16.08
2022-10-07T21:53:59.349Z,16.60
2022-10-07T21:57:04.745Z,17.57
2022-10-07T22:00:08.114Z,16.02
2022-10-07T22:03:14.685Z,16.20
2022-10-07T22:06:19.318Z,16.87
2022-10-07T22:09:21.953Z,19.37
2022-10-07T22:12:25.400Z,20.57
2022-10-07T22:15:28.565Z,16.65
2022-10-07T22:18:35.646Z,17.23
2022-10-07T22:21:40.421Z,17.67
2022-10-07T22:24:43.402Z,20.60
2022-10-07T22:27:48.389Z,18.00
2022-10-07T22:30:51.501Z,17.70
2022-10-07T22:33:57.476Z,25.08
2022-10-07T22:37:00.827Z,18.40
2022-10-07T22:40:05.864Z,21.37
2022-10-07T22:43:11.819Z,18.07
2022-10-07T22:46:26.605Z,21.85
2022-10-07T22:49:30.462Z,19.42
2022-10-07T22:52:33.201Z,16.85
2022-10-07T22:55:37.397Z,20.37
2022-10-07T22:58:42.025Z,19.20
2022-10-07T23:01:44.881Z,16.75
2022-10-07T23:04:47.708Z,18.92
2022-10-07T23:07:50.556Z,18.87
2022-10-07T23:10:57.357Z,20.37
2022-10-07T23:14:00.236Z,21.63
2022-10-07T23:17:03.168Z,19.62
2022-10-07T23:20:06.808Z,16.60
2022-10-07T23:23:09.761Z,18.73
2022-10-07T23:26:33.616Z,20.57
2022-10-07T23:29:36.231Z,17.10
2022-10-07T23:32:39.103Z,20.50
2022-10-07T23:35:42.145Z,18.50
2022-10-07T23:38:45.840Z,17.95
2022-10-07T23:41:49.091Z,18.13
2022-10-07T23:44:53.179Z,21.70
2022-10-07T23:47:55.803Z,19.75
2022-10-07T23:50:58.641Z,17.73
2022-10-07T23:54:03.278Z,18.77
2022-10-07T23:57:06.830Z,19.93
